createdAt,value
2023-05-05T00:01:57.490Z,15.56
2023-05-05T00:05:18.002Z,15.70
2023-05-05T00:08:23.015Z,15.83
2023-05-05T00:11:26.641Z,15.77
2023-05-05T00:14:37.185Z,15.66
2023-05-05T00:17:46.814Z,15.58
2023-05-05T00:20:50.354Z,15.49
2023-05-05T00:23:54.499Z,15.42
2023-05-05T00:27:08.246Z,15.38
2023-05-05T00:30:13.958Z,15.41
2023-05-05T00:33:21.209Z,15.44
2023-05-05T00:36:42.854Z,15.39
2023-05-05T00:39:45.790Z,15.27
2023-05-05T00:42:51.021Z,15.29
2023-05-05T00:46:10.376Z,15.22
2023-05-05T00:49:21.343Z,15.18
2023-05-05T00:52:28.160Z,15.18
2023-05-05T00:55:48.015Z,15.11
2023-05-05T00:58:52.294Z,15.11
2023-05-05T01:02:00.665Z,14.99
2023-05-05T01:05:19.965Z,15.02
2023-05-05T01:08:45.815Z,14.92
2023-05-05T01:12:07.034Z,14.95
2023-05-05T01:15:32.219Z,14.90
2023-05-05T01:19:04.359Z,14.57
2023-05-05T01:22:22.026Z,14.76
2023-05-05T01:26:15.010Z,14.82
2023-05-05T01:29:48.292Z,14.70
2023-05-05T01:33:17.009Z,14.70
2023-05-05T01:36:49.937Z,14.60
2023-05-05T01:39:59.615Z,14.61
2023-05-05T01:43:26.715Z,14.66
2023-05-05T01:47:05.941Z,14.60
2023-05-05T01:50:24.901Z,14.53
2023-05-05T01:53:35.053Z,14.35
2023-05-05T01:56:48.834Z,14.44
2023-05-05T02:00:07.708Z,14.40
2023-05-05T02:03:32.498Z,14.36
2023-05-05T02:06:53.480Z,14.20
2023-05-05T02:10:14.850Z,14.12
2023-05-05T02:13:26.271Z,14.07
2023-05-05T02:16:31.308Z,14.06
2023-05-05T02:19:45.983Z,13.98
2023-05-05T02:23:23.925Z,13.88
2023-05-05T02:27:06.890Z,13.84
2023-05-05T02:30:35.597Z,13.79
2023-05-05T02:33:50.600Z,13.64
2023-05-05T02:37:16.605Z,13.59
2023-05-05T02:40:37.462Z,13.29
2023-05-05T02:44:01.633Z,13.24
2023-05-05T02:47:24.483Z,13.34
2023-05-05T02:50:42.650Z,13.32
2023-05-05T02:54:04.640Z,13.24
2023-05-05T02:57:25.757Z,13.23
2023-05-05T03:00:57.909Z,13.16
2023-05-05T03:04:30.406Z,12.98
2023-05-05T03:07:54.184Z,13.01
2023-05-05T03:11:06.846Z,13.00
2023-05-05T03:14:22.219Z,13.07
2023-05-05T03:17:44.788Z,12.92
2023-05-05T03:20:55.441Z,12.88
2023-05-05T03:24:18.599Z,12.90
2023-05-05T03:27:45.652Z,12.89
2023-05-05T03:31:04.019Z,12.85
2023-05-05T03:34:18.724Z,12.88
2023-05-05T03:37:52.616Z,12.72
2023-05-05T03:41:37.623Z,12.83
2023-05-05T03:45:15.726Z,12.83
2023-05-05T03:48:49.069Z,12.94
2023-05-05T03:52:24.850Z,12.87
2023-05-05T03:55:40.466Z,12.67
2023-05-05T03:59:03.508Z,12.72
2023-05-05T04:02:26.548Z,12.48
2023-05-05T04:05:44.432Z,12.74
2023-05-05T04:09:36.272Z,12.87
2023-05-05T04:13:08.206Z,12.75
2023-05-05T04:16:45.694Z,12.71
2023-05-05T04:20:14.077Z,12.99
2023-05-05T04:23:41.433Z,13.08
2023-05-05T04:27:12.786Z,12.98
2023-05-05T04:30:44.330Z,12.98
2023-05-05T04:34:18.441Z,12.89
2023-05-05T04:37:44.179Z,12.48
2023-05-05T04:41:07.514Z,12.57
2023-05-05T04:44:39.858Z,12.52
2023-05-05T04:47:55.394Z,12.74
2023-05-05T04:51:12.252Z,12.96
2023-05-05T04:54:29.598Z,12.78
2023-05-05T04:57:44.466Z,12.88
2023-05-05T05:01:00.702Z,12.86
2023-05-05T05:04:30.314Z,12.93
2023-05-05T05:08:04.418Z,13.07
2023-05-05T05:11:26.980Z,13.08
2023-05-05T05:14:48.986Z,13.15
2023-05-05T05:18:12.320Z,13.39
2023-05-05T05:21:33.386Z,13.39
2023-05-05T05:24:54.793Z,13.37
2023-05-05T05:28:18.191Z,13.59
2023-05-05T05:31:44.060Z,13.53
2023-05-05T05:34:49.952Z,13.60
2023-05-05T05:37:54.236Z,13.53
2023-05-05T05:41:28.146Z,13.84
2023-05-05T05:44:32.917Z,13.89
2023-05-05T05:47:43.753Z,14.05
2023-05-05T05:50:54.744Z,14.15
2023-05-05T05:53:58.929Z,14.36
2023-05-05T05:57:10.801Z,14.50
2023-05-05T06:00:20.368Z,14.28
2023-05-05T06:03:52.843Z,14.73
2023-05-05T06:07:13.744Z,14.94
2023-05-05T06:10:28.968Z,14.93
2023-05-05T06:13:48.439Z,15.00
2023-05-05T06:21:27.441Z,15.22
2023-05-05T06:24:32.173Z,15.41
2023-05-05T06:27:59.373Z,15.54
2023-05-05T06:31:40.486Z,15.69
2023-05-05T06:34:52.784Z,15.71
2023-05-05T06:38:09.888Z,15.72
2023-05-05T06:41:27.015Z,15.94
2023-05-05T06:44:36.957Z,16.11
2023-05-05T06:47:41.876Z,16.28
2023-05-05T06:50:45.778Z,16.15
2023-05-05T06:54:01.385Z,16.37
2023-05-05T06:57:05.608Z,16.51
2023-05-05T07:00:15.159Z,16.34
2023-05-05T07:03:20.785Z,16.74
2023-05-05T07:06:31.938Z,16.87
2023-05-05T07:14:24.716Z,16.98
2023-05-05T07:17:31.878Z,16.99
2023-05-05T07:20:48.958Z,17.26
2023-05-05T07:23:56.871Z,17.18
2023-05-05T07:27:04.343Z,16.86
2023-05-05T07:30:17.336Z,17.16
2023-05-05T07:33:43.717Z,17.25
2023-05-05T07:37:05.148Z,17.34
2023-05-05T07:41:00.611Z,17.37
2023-05-05T07:44:27.199Z,17.61
2023-05-05T07:47:51.706Z,17.68
2023-05-05T07:50:59.730Z,17.44
2023-05-05T07:54:04.542Z,17.82
2023-05-05T07:57:14.821Z,17.74
2023-05-05T08:01:13.289Z,17.71
2023-05-05T08:04:18.356Z,17.87
2023-05-05T08:07:22.327Z,18.17
2023-05-05T08:11:19.215Z,18.23
2023-05-05T08:14:25.383Z,18.36
2023-05-05T08:17:29.499Z,18.51
2023-05-05T08:20:46.008Z,18.74
2023-05-05T08:23:49.180Z,18.71
2023-05-05T08:26:53.011Z,18.52
2023-05-05T08:30:06.229Z,18.69
2023-05-05T08:33:11.299Z,18.63
2023-05-05T08:36:14.767Z,18.69
2023-05-05T08:39:23.133Z,18.89
2023-05-05T08:42:37.054Z,19.01
2023-05-05T08:45:57.018Z,18.91
2023-05-05T08:49:28.052Z,19.26
2023-05-05T08:52:51.390Z,19.17
2023-05-05T08:56:08.255Z,19.34
2023-05-05T08:59:37.645Z,19.41
2023-05-05T09:03:00.227Z,19.51
2023-05-05T09:06:21.860Z,19.52
2023-05-05T09:09:27.249Z,19.46
2023-05-05T09:12:51.922Z,19.66
2023-05-05T09:16:05.652Z,19.51
2023-05-05T09:19:12.924Z,19.57
2023-05-05T09:22:41.594Z,19.85
2023-05-05T09:26:10.060Z,19.98
2023-05-05T09:29:36.612Z,19.98
2023-05-05T09:32:52.982Z,20.07
2023-05-05T09:36:01.363Z,19.93
2023-05-05T09:39:13.289Z,20.09
2023-05-05T09:42:27.414Z,20.08
2023-05-05T09:45:37.502Z,19.97
2023-05-05T09:49:01.889Z,19.85
2023-05-05T09:52:36.373Z,19.85
2023-05-05T09:56:30.905Z,19.79
2023-05-05T09:59:34.260Z,20.17
2023-05-05T10:02:43.593Z,20.03
2023-05-05T10:06:04.914Z,20.24
2023-05-05T10:09:27.632Z,20.04
2023-05-05T10:12:32.515Z,19.95
2023-05-05T10:15:36.500Z,20.42
2023-05-05T10:18:47.290Z,20.82
2023-05-05T10:22:04.411Z,21.03
2023-05-05T10:25:22.845Z,21.05
2023-05-05T10:28:35.029Z,21.22
2023-05-05T10:31:54.694Z,20.49
2023-05-05T10:35:03.769Z,20.64
2023-05-05T10:38:11.626Z,20.52
2023-05-05T10:41:28.500Z,20.84
2023-05-05T10:44:38.419Z,20.99
2023-05-05T10:48:02.554Z,21.66
2023-05-05T10:51:39.403Z,22.28
2023-05-05T10:54:57.972Z,22.48
2023-05-05T10:58:12.512Z,22.39
2023-05-05T11:01:36.471Z,22.22
2023-05-05T11:05:15.265Z,22.27
2023-05-05T11:08:26.978Z,21.94
2023-05-05T11:12:09.819Z,22.47
2023-05-05T11:15:32.061Z,22.64
2023-05-05T11:18:43.367Z,22.19
2023-05-05T11:22:03.175Z,22.87
2023-05-05T11:25:34.852Z,23.06
2023-05-05T11:29:04.875Z,23.37
2023-05-05T11:32:20.378Z,23.42
2023-05-05T11:35:56.378Z,23.75
2023-05-05T11:39:25.567Z,24.14
2023-05-05T11:42:41.422Z,24.05
2023-05-05T11:45:45.109Z,24.05
2023-05-05T11:48:54.063Z,24.30
2023-05-05T11:52:02.681Z,24.72
2023-05-05T11:55:06.289Z,25.25
2023-05-05T11:58:21.094Z,25.53
2023-05-05T12:01:29.154Z,25.66
2023-05-05T12:04:48.121Z,25.81
2023-05-05T12:08:10.143Z,26.63
2023-05-05T12:11:27.219Z,26.40
2023-05-05T12:14:59.499Z,27.75
2023-05-05T12:18:20.447Z,28.19
2023-05-05T12:21:41.142Z,27.88
2023-05-05T12:25:03.296Z,28.61
2023-05-05T12:28:25.162Z,28.97
2023-05-05T12:31:38.167Z,29.27
2023-05-05T12:34:49.040Z,28.72
2023-05-05T12:38:00.179Z,27.67
2023-05-05T12:41:21.530Z,27.18
2023-05-05T12:44:37.841Z,28.66
2023-05-05T12:47:47.757Z,28.24
2023-05-05T12:50:54.600Z,29.63
2023-05-05T12:54:11.609Z,30.10
2023-05-05T12:57:14.718Z,28.95
2023-05-05T13:00:26.202Z,29.58
2023-05-05T13:03:48.274Z,29.34
2023-05-05T13:07:15.396Z,28.25
2023-05-05T13:10:32.359Z,28.53
2023-05-05T13:13:36.454Z,29.52
2023-05-05T13:16:40.173Z,28.78
2023-05-05T13:19:51.001Z,28.55
2023-05-05T13:23:05.517Z,27.61
2023-05-05T13:26:40.837Z,29.03
2023-05-05T13:30:04.895Z,29.68
2023-05-05T13:33:27.851Z,30.29
2023-05-05T13:36:40.588Z,31.47
2023-05-05T13:39:49.827Z,31.44
2023-05-05T13:43:26.665Z,31.64
2023-05-05T13:46:55.892Z,33.00
2023-05-05T13:50:07.971Z,32.56
2023-05-05T13:53:11.079Z,33.42
2023-05-05T13:56:14.705Z,31.77
2023-05-05T13:59:26.214Z,32.99
2023-05-05T14:02:30.079Z,32.51
2023-05-05T14:05:54.498Z,32.38
2023-05-05T14:09:15.134Z,33.23
2023-05-05T14:12:36.092Z,33.77
2023-05-05T14:15:53.103Z,33.11
2023-05-05T14:19:06.974Z,34.19
2023-05-05T14:22:14.267Z,32.82
2023-05-05T14:25:28.600Z,33.78
2023-05-05T14:28:49.930Z,33.24
2023-05-05T14:32:08.029Z,32.78
2023-05-05T14:35:24.751Z,33.68
2023-05-05T14:38:38.641Z,33.85
2023-05-05T14:41:55.241Z,33.12
2023-05-05T14:44:58.653Z,33.93
2023-05-05T14:48:08.386Z,33.75
2023-05-05T14:51:17.405Z,31.64
2023-05-05T14:54:28.266Z,31.53
2023-05-05T14:57:39.045Z,29.54
2023-05-05T15:00:46.253Z,30.23
2023-05-05T15:04:06.824Z,30.72
2023-05-05T15:07:32.838Z,30.23
2023-05-05T15:10:50.884Z,31.31
2023-05-05T15:13:54.063Z,30.20
2023-05-05T15:16:57.788Z,29.00
2023-05-05T15:20:20.867Z,27.85
2023-05-05T15:23:58.443Z,27.45
2023-05-05T15:27:33.907Z,27.34
2023-05-05T15:31:01.902Z,28.02
2023-05-05T15:34:24.905Z,27.99
2023-05-05T15:37:42.811Z,27.59
2023-05-05T15:41:06.733Z,27.08
2023-05-05T15:44:32.830Z,27.20
2023-05-05T15:47:54.902Z,26.77
2023-05-05T15:51:04.725Z,26.73
2023-05-05T15:54:22.686Z,26.51
2023-05-05T15:57:51.789Z,26.22
2023-05-05T16:01:26.859Z,25.87
2023-05-05T16:04:47.988Z,25.87
2023-05-05T16:08:10.634Z,25.63
2023-05-05T16:11:27.822Z,25.91
2023-05-05T16:14:48.129Z,25.77
2023-05-05T16:18:07.804Z,25.91
2023-05-05T16:21:37.046Z,25.69
2023-05-05T16:24:56.698Z,25.87
2023-05-05T16:28:12.929Z,25.65
2023-05-05T16:31:26.735Z,25.72
2023-05-05T16:34:29.892Z,25.48
2023-05-05T16:37:39.440Z,25.34
2023-05-05T16:41:02.808Z,25.04
2023-05-05T16:44:17.365Z,24.84
2023-05-05T16:47:27.335Z,24.83
2023-05-05T16:50:37.906Z,24.34
2023-05-05T16:53:44.351Z,24.28
2023-05-05T16:56:51.085Z,24.24
2023-05-05T16:59:56.307Z,25.21
2023-05-05T17:03:23.017Z,26.36
2023-05-05T17:06:26.887Z,27.30
2023-05-05T17:09:45.468Z,26.46
2023-05-05T17:13:06.398Z,25.72
2023-05-05T17:16:28.455Z,25.18
2023-05-05T17:19:31.700Z,24.41
2023-05-05T17:22:35.331Z,24.07
2023-05-05T17:25:47.052Z,23.76
2023-05-05T17:28:53.070Z,23.72
2023-05-05T17:31:56.842Z,23.83
2023-05-05T17:34:59.650Z,23.98
2023-05-05T17:38:15.790Z,23.57
2023-05-05T17:41:38.633Z,23.32
2023-05-05T17:45:08.804Z,23.11
2023-05-05T17:48:32.929Z,23.01
2023-05-05T17:51:55.498Z,23.05
2023-05-05T17:55:17.481Z,22.85
2023-05-05T17:58:40.578Z,22.81
2023-05-05T18:02:03.482Z,22.92
2023-05-05T18:05:24.513Z,22.77
2023-05-05T18:08:50.128Z,22.51
2023-05-05T18:12:09.462Z,22.62
2023-05-05T18:15:26.403Z,22.76
2023-05-05T18:18:48.542Z,22.80
2023-05-05T18:22:16.503Z,22.76
2023-05-05T18:25:38.637Z,22.58
2023-05-05T18:29:01.411Z,22.40
2023-05-05T18:32:22.488Z,22.24
2023-05-05T18:35:38.564Z,22.12
2023-05-05T18:38:58.753Z,21.88
2023-05-05T18:42:24.521Z,21.79
2023-05-05T18:45:48.550Z,21.82
2023-05-05T18:48:51.620Z,21.80
2023-05-05T18:51:56.456Z,21.75
2023-05-05T18:55:10.307Z,21.66
2023-05-05T18:58:31.961Z,21.62
2023-05-05T19:01:42.938Z,21.50
2023-05-05T19:04:48.033Z,21.46
2023-05-05T19:07:52.093Z,21.32
2023-05-05T19:10:58.990Z,21.47
2023-05-05T19:14:02.696Z,21.43
2023-05-05T19:17:10.659Z,21.42
2023-05-05T19:20:29.178Z,21.35
2023-05-05T19:23:51.141Z,21.26
2023-05-05T19:26:54.399Z,21.04
2023-05-05T19:29:58.020Z,20.79
2023-05-05T19:33:04.857Z,20.82
2023-05-05T19:36:14.853Z,20.74
2023-05-05T19:39:18.998Z,20.54
2023-05-05T19:42:26.760Z,20.39
2023-05-05T19:45:31.572Z,20.23
2023-05-05T19:48:35.177Z,20.14
2023-05-05T19:51:38.202Z,20.02
2023-05-05T19:54:45.054Z,20.04
2023-05-05T19:57:52.770Z,19.98
2023-05-05T20:00:59.618Z,19.88
2023-05-05T20:04:22.302Z,19.63
2023-05-05T20:07:43.175Z,19.54
2023-05-05T20:11:06.124Z,19.23
2023-05-05T20:14:29.427Z,19.14
2023-05-05T20:17:32.529Z,19.24
2023-05-05T20:20:48.218Z,18.97
2023-05-05T20:24:24.237Z,18.80
2023-05-05T20:27:56.165Z,18.81
2023-05-05T20:31:18.149Z,18.73
2023-05-05T20:34:41.193Z,18.64
2023-05-05T20:38:03.277Z,18.53
2023-05-05T20:41:06.473Z,18.40
2023-05-05T20:44:10.385Z,18.33
2023-05-05T20:47:27.606Z,18.26
2023-05-05T20:50:41.836Z,18.16
2023-05-05T20:53:44.962Z,17.91
2023-05-05T20:56:47.704Z,17.90
2023-05-05T20:59:50.580Z,17.63
2023-05-05T21:03:06.396Z,17.62
2023-05-05T21:06:32.208Z,17.81
2023-05-05T21:09:48.399Z,17.76
2023-05-05T21:12:52.143Z,17.34
2023-05-05T21:15:55.164Z,17.49
2023-05-05T21:19:04.636Z,17.43
2023-05-05T21:22:15.548Z,17.34
2023-05-05T21:25:22.200Z,17.34
2023-05-05T21:28:29.317Z,17.24
2023-05-05T21:31:50.235Z,17.20
2023-05-05T21:34:53.380Z,17.26
2023-05-05T21:37:58.160Z,17.19
2023-05-05T21:41:07.890Z,17.22
2023-05-05T21:44:17.598Z,17.14
2023-05-05T21:47:28.852Z,17.13
2023-05-05T21:50:45.489Z,16.89
2023-05-05T21:53:48.715Z,16.79
2023-05-05T21:57:02.386Z,16.84
2023-05-05T22:00:08.267Z,16.81
2023-05-05T22:03:17.017Z,16.76
2023-05-05T22:06:38.074Z,16.69
2023-05-05T22:09:41.202Z,16.77
2023-05-05T22:13:05.064Z,16.73
2023-05-05T22:16:29.024Z,16.66
2023-05-05T22:20:05.012Z,16.56
2023-05-05T22:23:28.141Z,16.47
2023-05-05T22:26:31.151Z,16.37
2023-05-05T22:29:41.858Z,16.33
2023-05-05T22:32:46.605Z,16.21
2023-05-05T22:36:03.170Z,15.89
2023-05-05T22:39:09.453Z,15.64
2023-05-05T22:42:13.525Z,15.74
2023-05-05T22:45:28.066Z,15.67
2023-05-05T22:48:32.943Z,15.78
2023-05-05T22:51:49.501Z,15.64
2023-05-05T22:55:21.845Z,15.55
2023-05-05T22:58:38.586Z,15.44
2023-05-05T23:02:07.896Z,15.39
2023-05-05T23:05:31.010Z,15.42
2023-05-05T23:08:55.876Z,15.42
2023-05-05T23:12:22.077Z,15.40
2023-05-05T23:15:44.840Z,14.93
2023-05-05T23:19:05.988Z,15.31
2023-05-05T23:22:28.789Z,15.44
2023-05-05T23:25:47.062Z,15.35
2023-05-05T23:29:06.948Z,15.39
2023-05-05T23:32:33.905Z,15.34
2023-05-05T23:35:53.807Z,15.26
2023-05-05T23:39:13.785Z,15.19
2023-05-05T23:42:36.780Z,15.20
2023-05-05T23:45:53.919Z,15.20
2023-05-05T23:48:57.970Z,15.31
2023-05-05T23:52:01.194Z,15.06
2023-05-05T23:55:12.418Z,14.95
2023-05-05T23:58:27.710Z,14.94
